This is the latest recevied weather packets stored in our database for station/object KN1OBI-13. If no packets are shown the sender has not sent any weather packets the latest 10 day(s).
| Time | Temp. | Humidity | Pressure | Rain* | Wind** | Luminosity | Snow |
|---|---|---|---|---|---|---|---|
| 1777088300 | 4.44° C | 53% | 995.1 hPa | 0 mm | - | - | - |
| 1777087700 | 5° C | 53% | 995 hPa | 0 mm | - | - | - |
| 1777084700 | 6.11° C | 51% | 994.6 hPa | 0 mm | - | - | - |
| 1777083500 | 6.11° C | 54% | 994.5 hPa | 0 mm | - | - | - |
| 1777082900 | 6.67° C | 54% | 994.3 hPa | 0 mm | - | - | - |
| 1777082300 | 6.67° C | 55% | 994.2 hPa | 0 mm | - | - | - |
| 1777079900 | 7.78° C | 52% | 993.2 hPa | 0 mm | - | - | - |
| 1777079300 | 7.78° C | 51% | 993.2 hPa | 0 mm | - | - | - |
| 1777077500 | 8.89° C | 49% | 992.8 hPa | 0 mm | - | - | - |
| 1777076900 | 9.44° C | 45% | 992.5 hPa | 0 mm | - | - | - |
| 1777076300 | 10° C | 46% | 992.4 hPa | 0 mm | - | - | - |
| 1777073899 | 12.22° C | 28% | 990.9 hPa | 0 mm | - | - | - |
| 1777070300 | 15° C | 24% | 990.1 hPa | 0 mm | - | - | - |
| 1777069701 | 16.67° C | 22% | 990.1 hPa | 0 mm | - | - | - |
| 1777069100 | 18.89° C | 20% | 990 hPa | 0 mm | - | - | - |
| 1777066700 | 20° C | 21% | 989 hPa | 0 mm | - | - | - |
| 1777065500 | 20° C | 20% | 989.4 hPa | 0 mm | - | - | - |
| 1777063700 | 20° C | 19% | 989.1 hPa | 0 mm | - | - | - |
| 1777062499 | 19.44° C | 20% | 988.7 hPa | 0 mm | - | - | - |
| 1777061899 | 20° C | 20% | 988.7 hPa | 0 mm | - | - | - |
| 1777060701 | 19.44° C | 22% | 988.5 hPa | 0 mm | - | - | - |
| 1777058300 | 18.33° C | 21% | 988.6 hPa | 0 mm | - | - | - |
| 1777055300 | 17.22° C | 22% | 988.4 hPa | 0 mm | - | - | - |
| 1777054100 | 16.11° C | 22% | 988.5 hPa | 0 mm | - | - | - |
| 1777052301 | 16.11° C | 24% | 988.8 hPa | 0 mm | - | - | - |
* Rain latest hour (hover to see other rain measurements)
** Current wind speed in m/s (hover to see current wind gust speed)